Time;durP1;ratioP1;P1;durP2;ratioP2;P2;SDS_P1;SDS_P2;PMS_P1;PMS_P2;Temp;Humidity;BMP_temperature;BMP_pressure;BME280_temperature;BME280_humidity;BME280_pressure;Samples;Min_cycle;Max_cycle;Signal;HPM_P1;HPM_P2
2023/06/05 00:02:30;;;;;;;1.60;1.50;;;14.60;46.40;;;;;;5204096;28;20266;-47
2023/06/05 00:05:01;;;;;;;1.57;1.57;;;14.50;46.60;;;;;;5200782;28;20663;-45
2023/06/05 00:07:32;;;;;;;1.60;1.60;;;14.40;46.70;;;;;;5204349;28;20198;-45
2023/06/05 00:10:03;;;;;;;6.47;1.57;;;14.40;46.60;;;;;;5201197;28;20972;-46
2023/06/05 00:12:35;;;;;;;1.60;1.50;;;14.40;46.80;;;;;;5223519;28;20259;-51
2023/06/05 00:15:06;;;;;;;1.60;1.50;;;14.30;46.90;;;;;;5217659;28;20473;-46
2023/06/05 00:17:37;;;;;;;1.40;1.40;;;14.30;47.00;;;;;;5220678;28;20466;-44
2023/06/05 00:20:11;;;;;;;1.20;1.20;;;14.20;47.00;;;;;;5222556;28;20491;-43
2023/06/05 00:22:44;;;;;;;1.93;1.63;;;14.30;47.20;;;;;;5221640;28;20421;-45
2023/06/05 00:25:14;;;;;;;2.53;1.40;;;14.20;47.40;;;;;;5221085;28;20449;-45
2023/06/05 00:27:45;;;;;;;3.60;1.40;;;14.00;47.40;;;;;;5220644;28;20429;-43
2023/06/05 00:30:16;;;;;;;1.57;1.30;;;14.10;47.70;;;;;;5217954;28;20874;-44
2023/06/05 00:32:46;;;;;;;2.00;1.90;;;14.00;47.90;;;;;;5219866;28;20186;-44
2023/06/05 00:35:17;;;;;;;1.67;1.57;;;14.00;48.10;;;;;;5202642;28;20803;-44
2023/06/05 00:37:48;;;;;;;1.57;1.57;;;13.90;48.30;;;;;;5218489;28;20210;-44
2023/06/05 00:40:18;;;;;;;1.70;1.70;;;13.80;48.50;;;;;;5220215;28;20267;-45
2023/06/05 00:42:49;;;;;;;1.83;1.73;;;13.80;48.70;;;;;;5203351;28;20175;-45
2023/06/05 00:45:20;;;;;;;1.90;1.80;;;13.70;48.90;;;;;;5200811;28;20282;-44
2023/06/05 00:47:51;;;;;;;2.80;1.50;;;13.60;49.10;;;;;;5224438;28;20185;-44
2023/06/05 00:50:21;;;;;;;2.63;1.43;;;13.60;49.30;;;;;;5214877;28;20715;-46
2023/06/05 00:52:54;;;;;;;1.60;1.60;;;13.60;49.40;;;;;;5202528;28;20191;-44
2023/06/05 00:55:26;;;;;;;1.90;1.63;;;13.50;49.50;;;;;;5219923;28;20480;-45
2023/06/05 00:57:57;;;;;;;9.30;1.70;;;13.50;49.70;;;;;;5203974;28;20552;-44
2023/06/05 01:00:28;;;;;;;1.20;1.10;;;13.40;49.80;;;;;;5218439;28;20438;-44
2023/06/05 01:02:58;;;;;;;1.80;1.70;;;13.40;50.00;;;;;;5186751;28;20498;-48
2023/06/05 01:05:29;;;;;;;5.30;1.50;;;13.30;50.20;;;;;;5221585;28;20183;-44
2023/06/05 01:08:03;;;;;;;1.70;1.60;;;13.30;50.30;;;;;;5187866;28;20182;-45
2023/06/05 01:10:33;;;;;;;2.00;1.70;;;13.30;50.50;;;;;;5225640;28;20445;-44
2023/06/05 01:13:15;;;;;;;1.50;1.40;;;13.30;50.60;;;;;;5225389;28;20754;-45
2023/06/05 01:15:46;;;;;;;5.03;1.73;;;13.20;50.70;;;;;;5207217;28;20198;-46
2023/06/05 01:18:18;;;;;;;1.90;1.20;;;13.20;50.80;;;;;;5205057;28;20516;-44
2023/06/05 01:20:50;;;;;;;4.63;1.33;;;13.20;50.90;;;;;;5222014;28;20528;-44
2023/06/05 01:23:25;;;;;;;1.33;1.17;;;13.20;51.00;;;;;;5224321;28;20452;-45
2023/06/05 01:26:02;;;;;;;2.20;1.20;;;13.20;51.10;;;;;;5221368;28;20774;-45
2023/06/05 01:28:33;;;;;;;3.23;1.00;;;13.20;51.10;;;;;;5206000;28;20433;-44
2023/06/05 01:31:08;;;;;;;0.73;0.73;;;13.20;51.20;;;;;;5226958;28;20456;-44
2023/06/05 01:33:49;;;;;;;1.03;1.03;;;13.20;51.20;;;;;;5212635;28;20218;-44
2023/06/05 01:36:21;;;;;;;1.20;1.20;;;13.10;51.20;;;;;;5222791;28;20473;-44
2023/06/05 01:38:53;;;;;;;1.73;1.20;;;13.10;51.30;;;;;;5206922;28;20449;-45
2023/06/05 01:41:26;;;;;;;0.80;0.80;;;13.10;51.50;;;;;;5206890;28;20488;-44
2023/06/05 01:43:57;;;;;;;1.00;1.00;;;13.10;51.60;;;;;;5225430;28;20472;-45
2023/06/05 01:46:28;;;;;;;1.10;1.07;;;13.00;51.70;;;;;;5222616;28;20437;-45
2023/06/05 01:49:01;;;;;;;3.37;1.10;;;13.00;51.70;;;;;;5223544;28;20274;-44
2023/06/05 01:51:31;;;;;;;2.20;1.10;;;13.00;51.80;;;;;;5203691;28;20199;-43
2023/06/05 01:54:02;;;;;;;1.30;1.27;;;13.00;51.90;;;;;;5227318;28;20453;-44
2023/06/05 01:56:35;;;;;;;1.07;1.07;;;13.00;51.90;;;;;;5202779;28;20233;-44
2023/06/05 01:59:06;;;;;;;1.20;1.07;;;13.00;52.00;;;;;;5210934;28;20179;-45
2023/06/05 02:01:37;;;;;;;1.00;1.00;;;12.90;52.00;;;;;;5204293;28;20449;-45
2023/06/05 02:04:08;;;;;;;3.50;1.20;;;12.90;52.10;;;;;;5220034;28;20461;-44
2023/06/05 02:06:42;;;;;;;1.37;1.27;;;12.90;52.10;;;;;;5225661;28;20785;-44
2023/06/05 02:09:13;;;;;;;1.17;1.13;;;12.90;52.20;;;;;;5209144;28;20679;-45
2023/06/05 02:11:46;;;;;;;1.43;1.13;;;12.90;52.20;;;;;;5201905;28;20429;-45
2023/06/05 02:14:19;;;;;;;1.73;1.30;;;12.90;52.20;;;;;;5209520;28;20195;-44
2023/06/05 02:16:50;;;;;;;0.90;0.90;;;12.80;52.30;;;;;;5202106;28;20493;-45
2023/06/05 02:19:20;;;;;;;1.00;1.00;;;12.80;52.40;;;;;;5201929;28;20973;-43
2023/06/05 02:21:53;;;;;;;1.13;1.00;;;12.80;52.40;;;;;;5210407;28;20186;-44
2023/06/05 02:24:25;;;;;;;1.30;1.30;;;12.80;52.50;;;;;;5203421;28;20210;-45
2023/06/05 02:26:56;;;;;;;2.67;1.57;;;12.80;52.50;;;;;;5222710;28;20542;-45
2023/06/05 02:29:27;;;;;;;1.93;1.00;;;12.70;52.50;;;;;;5223718;28;20495;-43
2023/06/05 02:31:57;;;;;;;3.70;1.10;;;12.70;52.60;;;;;;5207079;28;20438;-44
2023/06/05 02:34:28;;;;;;;2.20;1.10;;;12.70;52.70;;;;;;5204211;28;20222;-44
2023/06/05 02:36:59;;;;;;;1.63;1.13;;;12.70;52.60;;;;;;5220760;28;20219;-44
2023/06/05 02:39:33;;;;;;;3.00;1.30;;;12.70;52.60;;;;;;5221664;28;20208;-43
2023/06/05 02:42:04;;;;;;;1.30;1.30;;;12.80;52.50;;;;;;5206825;28;20453;-45
2023/06/05 02:44:35;;;;;;;1.27;1.27;;;12.80;52.50;;;;;;5205856;28;20452;-44
2023/06/05 02:47:06;;;;;;;4.00;1.73;;;12.80;52.50;;;;;;5220678;28;20426;-44
2023/06/05 02:49:37;;;;;;;1.40;1.33;;;12.80;52.30;;;;;;5223389;28;20195;-44
2023/06/05 02:52:07;;;;;;;3.23;1.30;;;12.80;52.10;;;;;;5219639;28;20523;-45
2023/06/05 02:54:38;;;;;;;1.47;1.37;;;12.90;52.10;;;;;;5220303;28;20448;-44
2023/06/05 02:57:08;;;;;;;1.70;1.20;;;12.90;52.00;;;;;;5204961;28;20218;-45
2023/06/05 02:59:39;;;;;;;2.50;1.60;;;12.90;52.00;;;;;;5206676;28;20244;-45
2023/06/05 03:02:10;;;;;;;1.73;1.63;;;12.90;52.00;;;;;;5216902;28;20187;-44
2023/06/05 03:04:42;;;;;;;2.33;1.33;;;12.90;51.80;;;;;;5216406;28;20202;-45
2023/06/05 03:07:13;;;;;;;1.67;1.00;;;12.90;51.90;;;;;;5225174;28;20846;-44
2023/06/05 03:09:44;;;;;;;1.30;1.20;;;12.90;52.00;;;;;;5223732;28;20437;-44
2023/06/05 03:12:14;;;;;;;0.90;0.90;;;12.90;52.10;;;;;;5229545;28;20189;-44
2023/06/05 03:14:45;;;;;;;2.27;2.07;;;12.90;52.10;;;;;;5201072;28;20222;-45
2023/06/05 03:17:16;;;;;;;1.93;1.50;;;12.90;52.20;;;;;;5205317;28;20266;-44
2023/06/05 03:19:46;;;;;;;1.53;1.37;;;12.90;52.40;;;;;;5208485;28;20545;-45
2023/06/05 03:22:17;;;;;;;5.00;1.00;;;12.90;52.50;;;;;;5223645;28;20202;-44
2023/06/05 03:24:48;;;;;;;3.43;1.40;;;12.90;52.60;;;;;;5214749;28;20204;-46
2023/06/05 03:27:19;;;;;;;1.70;1.13;;;12.80;52.70;;;;;;5193396;28;20824;-45
2023/06/05 03:29:50;;;;;;;1.57;1.47;;;12.80;52.50;;;;;;5225999;28;20175;-43
2023/06/05 03:32:20;;;;;;;2.20;1.20;;;12.80;52.50;;;;;;5223487;28;20551;-44
2023/06/05 03:34:51;;;;;;;2.20;1.23;;;12.80;52.50;;;;;;5228155;28;20302;-44
2023/06/05 03:37:22;;;;;;;2.27;1.57;;;12.80;52.60;;;;;;5203268;28;20200;-45
2023/06/05 03:39:52;;;;;;;3.57;1.33;;;12.80;52.70;;;;;;5195607;28;20191;-44
2023/06/05 03:42:23;;;;;;;1.50;1.20;;;12.80;53.20;;;;;;5205102;28;20233;-44
2023/06/05 03:44:53;;;;;;;1.23;1.23;;;12.90;52.60;;;;;;5226235;28;20723;-45
2023/06/05 03:47:24;;;;;;;2.40;1.00;;;12.90;52.70;;;;;;5208272;28;20183;-44
2023/06/05 03:49:55;;;;;;;1.40;1.27;;;12.90;52.60;;;;;;5202172;28;20366;-45
2023/06/05 03:52:26;;;;;;;1.10;1.00;;;13.00;52.60;;;;;;5204889;28;20303;-44
2023/06/05 03:54:57;;;;;;;1.03;1.03;;;13.00;52.30;;;;;;5216080;28;21030;-45
2023/06/05 03:57:28;;;;;;;1.27;1.20;;;13.10;52.30;;;;;;5206588;28;20725;-44
2023/06/05 03:59:58;;;;;;;0.90;0.90;;;13.10;52.30;;;;;;5225410;28;20194;-45
2023/06/05 04:02:29;;;;;;;1.07;1.07;;;13.20;51.80;;;;;;5219155;28;20188;-44
2023/06/05 04:05:00;;;;;;;1.00;1.00;;;13.30;51.80;;;;;;5205511;28;20688;-44
2023/06/05 04:07:31;;;;;;;2.40;1.20;;;13.30;51.70;;;;;;5219282;28;20179;-46
2023/06/05 04:10:02;;;;;;;1.57;1.10;;;13.40;51.40;;;;;;5207116;28;20569;-45
2023/06/05 04:12:33;;;;;;;1.33;1.20;;;13.40;51.20;;;;;;5204024;28;20194;-44
2023/06/05 04:15:04;;;;;;;2.40;1.33;;;13.50;51.10;;;;;;5205285;28;20461;-44
2023/06/05 04:17:37;;;;;;;1.50;1.40;;;13.60;51.10;;;;;;5225075;28;20214;-45
2023/06/05 04:20:13;;;;;;;1.70;1.37;;;13.70;50.60;;;;;;5205631;28;20476;-45
2023/06/05 04:22:45;;;;;;;1.13;1.03;;;13.90;50.40;;;;;;5220963;28;21190;-43
2023/06/05 04:25:16;;;;;;;3.03;1.50;;;14.00;50.10;;;;;;5216590;28;20453;-45
2023/06/05 04:27:50;;;;;;;2.30;1.20;;;14.10;50.10;;;;;;5220628;28;20449;-44
2023/06/05 04:30:20;;;;;;;0.80;0.80;;;14.30;49.90;;;;;;5184974;28;20187;-45
2023/06/05 04:32:57;;;;;;;1.50;1.40;;;14.50;49.40;;;;;;5218280;28;20438;-44
2023/06/05 04:35:28;;;;;;;2.37;1.30;;;14.70;49.10;;;;;;5210420;23;20250;-48
2023/06/05 04:38:00;;;;;;;2.13;1.20;;;14.80;48.80;;;;;;5185164;28;20469;-47
2023/06/05 04:40:34;;;;;;;2.20;1.80;;;14.90;48.50;;;;;;5206000;28;20439;-48
2023/06/05 04:43:05;;;;;;;1.40;1.30;;;15.20;48.60;;;;;;5181392;28;20981;-46
2023/06/05 04:45:36;;;;;;;1.80;1.70;;;15.60;48.00;;;;;;5202423;28;20458;-47
2023/06/05 04:48:08;;;;;;;10.13;1.53;;;16.10;47.10;;;;;;5187709;28;20545;-48
2023/06/05 04:50:39;;;;;;;1.30;1.30;;;16.60;45.80;;;;;;5204959;28;20194;-46
2023/06/05 04:53:10;;;;;;;4.87;1.77;;;17.30;44.80;;;;;;5204102;28;20426;-46
2023/06/05 04:55:41;;;;;;;5.80;1.70;;;18.10;43.30;;;;;;5206122;28;20452;-46
2023/06/05 04:58:12;;;;;;;3.87;1.57;;;18.40;42.40;;;;;;5184903;28;20184;-46
2023/06/05 05:00:48;;;;;;;5.77;1.80;;;18.30;42.30;;;;;;5186337;28;20802;-48
2023/06/05 05:03:19;;;;;;;1.13;1.13;;;18.30;42.60;;;;;;5204422;28;20653;-47
2023/06/05 05:05:50;;;;;;;1.63;1.53;;;18.70;42.20;;;;;;5200107;28;20960;-48
2023/06/05 05:08:21;;;;;;;1.60;1.50;;;19.50;40.90;;;;;;5182969;28;20207;-47
2023/06/05 05:10:52;;;;;;;4.73;1.50;;;20.20;39.80;;;;;;5183728;28;20194;-47
2023/06/05 05:13:23;;;;;;;10.10;2.10;;;20.30;39.10;;;;;;5204373;28;20484;-48
2023/06/05 05:15:54;;;;;;;3.90;1.93;;;20.80;39.10;;;;;;5182487;28;20496;-47
2023/06/05 05:18:28;;;;;;;3.20;2.33;;;21.00;38.40;;;;;;5187300;28;20942;-49
2023/06/05 05:20:59;;;;;;;8.50;1.90;;;21.10;38.30;;;;;;5203383;28;20521;-46
2023/06/05 05:23:30;;;;;;;2.57;1.60;;;21.70;37.10;;;;;;5183014;28;20433;-47
2023/06/05 05:26:02;;;;;;;2.03;1.93;;;22.50;36.60;;;;;;5181562;28;20256;-48
2023/06/05 05:28:36;;;;;;;3.03;1.63;;;23.70;34.70;;;;;;5200841;28;20715;-48
2023/06/05 05:31:07;;;;;;;3.90;1.60;;;24.90;33.80;;;;;;5182207;28;21049;-48
2023/06/05 05:33:38;;;;;;;1.60;1.50;;;26.10;31.50;;;;;;5198671;28;20461;-48
2023/06/05 05:36:13;;;;;;;8.77;1.90;;;27.00;29.90;;;;;;5180481;28;20866;-48
2023/06/05 05:38:44;;;;;;;1.33;1.20;;;27.40;29.30;;;;;;5196302;28;20180;-47
2023/06/05 05:41:15;;;;;;;7.30;2.40;;;28.10;29.20;;;;;;5198998;28;21081;-48
2023/06/05 05:43:46;;;;;;;14.93;2.23;;;29.30;28.00;;;;;;5202711;28;20203;-47
2023/06/05 05:46:17;;;;;;;1.40;1.40;;;30.20;27.00;;;;;;5201098;28;20180;-48
2023/06/05 05:48:48;;;;;;;5.13;1.63;;;30.50;26.40;;;;;;5202696;28;20674;-48
2023/06/05 05:51:19;;;;;;;3.93;1.80;;;30.80;26.00;;;;;;5204340;28;21028;-48
2023/06/05 05:53:50;;;;;;;8.67;1.30;;;31.00;25.70;;;;;;5202909;28;20465;-48
2023/06/05 05:56:21;;;;;;;6.30;1.77;;;30.70;25.80;;;;;;5196910;28;20499;-48
2023/06/05 05:58:52;;;;;;;1.10;1.10;;;31.20;26.20;;;;;;5184811;28;20446;-48
2023/06/05 06:01:23;;;;;;;3.40;1.80;;;32.00;24.80;;;;;;5188659;28;20179;-47
2023/06/05 06:03:54;;;;;;;5.20;1.67;;;32.20;24.70;;;;;;5184589;28;20203;-48
2023/06/05 06:06:25;;;;;;;1.53;1.43;;;32.90;24.10;;;;;;5204190;28;20720;-48
2023/06/05 06:08:56;;;;;;;5.70;2.17;;;33.50;23.70;;;;;;5188003;28;20236;-48
2023/06/05 06:11:28;;;;;;;4.83;2.20;;;33.80;23.20;;;;;;5206208;28;20195;-47
2023/06/05 06:13:59;;;;;;;4.07;1.57;;;33.80;23.10;;;;;;5206124;28;20263;-49
2023/06/05 06:16:30;;;;;;;21.43;2.93;;;34.20;23.00;;;;;;5202687;28;20211;-48
2023/06/05 06:19:01;;;;;;;6.37;2.10;;;34.10;23.10;;;;;;5204075;28;21893;-48
2023/06/05 06:21:33;;;;;;;13.45;1.90;;;34.80;22.80;;;;;;5184685;28;20329;-48
2023/06/05 06:24:04;;;;;;;4.35;1.75;;;35.50;22.30;;;;;;5201709;28;20261;-48
2023/06/05 06:26:38;;;;;;;9.38;2.03;;;35.90;21.50;;;;;;5198133;28;20187;-48
2023/06/05 06:29:09;;;;;;;6.23;1.30;;;34.80;21.80;;;;;;5181408;28;20222;-48
2023/06/05 06:31:42;;;;;;;5.40;1.57;;;34.50;22.20;;;;;;5199846;28;20645;-48
2023/06/05 06:34:13;;;;;;;27.17;2.42;;;34.80;22.30;;;;;;5168245;28;20635;-48
2023/06/05 06:36:46;;;;;;;2.28;1.50;;;35.40;21.80;;;;;;5196751;28;20219;-48
2023/06/05 06:39:18;;;;;;;6.30;1.70;;;35.50;21.70;;;;;;5201884;28;20669;-48
2023/06/05 06:41:48;;;;;;;16.30;1.17;;;36.10;21.30;;;;;;5183413;28;20726;-49
2023/06/05 06:44:19;;;;;;;8.35;1.77;;;35.30;21.50;;;;;;5182762;28;20218;-47
2023/06/05 06:46:50;;;;;;;17.90;2.22;;;36.10;21.50;;;;;;5195112;28;20239;-47
2023/06/05 06:49:21;;;;;;;8.00;1.90;;;35.40;20.90;;;;;;5199797;28;20623;-48
2023/06/05 06:51:52;;;;;;;2.85;1.40;;;34.90;21.40;;;;;;5194899;28;20198;-48
2023/06/05 06:54:25;;;;;;;4.25;1.63;;;35.50;21.30;;;;;;5197744;28;20298;-47
2023/06/05 06:56:56;;;;;;;6.53;1.80;;;36.50;20.90;;;;;;5176875;28;20245;-48
2023/06/05 06:59:27;;;;;;;8.20;1.38;;;36.40;20.50;;;;;;5181306;28;20209;-48
2023/06/05 07:02:19;;;;;;;1.98;1.42;;;36.30;20.70;;;;;;5195749;28;21243;-48
2023/06/05 07:04:53;;;;;;;2.38;2.10;;;37.00;20.20;;;;;;5199222;28;20518;-48
2023/06/05 07:07:24;;;;;;;3.22;2.00;;;37.60;20.10;;;;;;5184621;28;20179;-47
2023/06/05 07:09:57;;;;;;;4.60;2.58;;;38.20;19.60;;;;;;5199580;28;20512;-47
2023/06/05 07:12:28;;;;;;;2.92;1.35;;;37.60;19.30;;;;;;5199535;28;20196;-48
2023/06/05 07:14:59;;;;;;;2.10;1.25;;;36.40;20.00;;;;;;5199084;28;20215;-48
2023/06/05 07:17:30;;;;;;;1.50;1.48;;;37.10;19.90;;;;;;5196738;28;20302;-48
2023/06/05 07:20:01;;;;;;;2.35;1.83;;;38.00;19.60;;;;;;5198314;28;20266;-47
2023/06/05 07:22:31;;;;;;;1.65;1.25;;;38.60;19.10;;;;;;5199173;28;20206;-48
2023/06/05 07:25:03;;;;;;;2.17;1.95;;;39.10;18.60;;;;;;5201315;28;20323;-49
2023/06/05 07:27:34;;;;;;;1.88;1.58;;;38.70;18.50;;;;;;5184242;28;20840;-48
2023/06/05 07:30:05;;;;;;;1.33;1.23;;;38.30;19.10;;;;;;5173399;28;20206;-49
2023/06/05 07:32:36;;;;;;;1.42;1.33;;;38.30;18.70;;;;;;5183723;28;20195;-49
2023/06/05 07:35:07;;;;;;;2.38;1.45;;;38.70;18.50;;;;;;5198880;28;20223;-49
2023/06/05 07:37:39;;;;;;;3.05;1.52;;;39.20;18.20;;;;;;5198121;28;20217;-48
2023/06/05 07:40:10;;;;;;;2.47;1.50;;;38.10;18.50;;;;;;5201561;28;20187;-48
2023/06/05 07:42:41;;;;;;;2.85;1.67;;;37.80;18.70;;;;;;5180531;28;20282;-47
2023/06/05 07:45:11;;;;;;;1.60;1.50;;;36.60;19.10;;;;;;5180969;28;20266;-49
2023/06/05 07:47:42;;;;;;;1.75;1.30;;;36.40;19.40;;;;;;5180894;28;20194;-47
2023/06/05 07:50:13;;;;;;;8.60;1.45;;;37.30;18.90;;;;;;5201303;28;20214;-49
2023/06/05 07:52:44;;;;;;;6.28;1.40;;;38.20;18.80;;;;;;5201878;28;20624;-48
2023/06/05 07:55:15;;;;;;;3.30;2.15;;;38.50;18.10;;;;;;5205272;28;20199;-48
2023/06/05 07:57:46;;;;;;;1.38;1.38;;;38.10;18.20;;;;;;5169482;28;20213;-47
2023/06/05 08:00:19;;;;;;;1.20;1.10;;;38.10;18.20;;;;;;5202737;28;20211;-48
2023/06/05 08:02:51;;;;;;;2.03;1.20;;;38.70;17.90;;;;;;5195648;28;20198;-48
2023/06/05 08:05:22;;;;;;;1.65;1.20;;;38.70;17.70;;;;;;5196195;28;20262;-49
2023/06/05 08:07:53;;;;;;;2.65;1.45;;;38.20;17.60;;;;;;5201809;28;20608;-48
2023/06/05 08:10:24;;;;;;;6.50;1.70;;;36.60;18.40;;;;;;5198641;28;20218;-49
2023/06/05 08:12:55;;;;;;;1.20;1.20;;;36.00;19.50;;;;;;5180245;28;20182;-47
2023/06/05 08:15:26;;;;;;;2.53;2.10;;;35.90;19.20;;;;;;5178179;28;20222;-47
2023/06/05 08:17:57;;;;;;;2.30;1.30;;;35.80;19.20;;;;;;5184967;28;20234;-48
2023/06/05 08:20:28;;;;;;;2.10;1.20;;;35.50;19.50;;;;;;5185666;28;20182;-47
2023/06/05 08:23:00;;;;;;;4.37;2.17;;;35.00;20.10;;;;;;5199666;28;20571;-47
2023/06/05 08:25:31;;;;;;;1.20;1.20;;;34.90;20.10;;;;;;5185811;28;20202;-49
2023/06/05 08:28:01;;;;;;;1.80;1.60;;;34.40;19.60;;;;;;5195093;28;20480;-48
2023/06/05 08:30:32;;;;;;;1.30;1.20;;;34.40;20.10;;;;;;5200726;28;20544;-46
2023/06/05 08:33:03;;;;;;;3.63;1.13;;;33.60;20.30;;;;;;5178650;28;20187;-49
2023/06/05 08:35:34;;;;;;;2.73;1.60;;;32.80;20.80;;;;;;5196073;28;20218;-46
2023/06/05 08:38:04;;;;;;;1.30;1.30;;;31.80;21.00;;;;;;5180771;28;20203;-47
2023/06/05 08:40:36;;;;;;;3.30;1.80;;;31.70;21.70;;;;;;5198781;28;20536;-48
2023/06/05 08:43:07;;;;;;;4.53;1.73;;;32.00;21.30;;;;;;5184798;28;20683;-48
2023/06/05 08:45:38;;;;;;;1.90;1.53;;;32.00;21.50;;;;;;5184662;28;20545;-48
2023/06/05 08:48:12;;;;;;;2.50;1.50;;;31.70;21.90;;;;;;5200578;28;20210;-47
2023/06/05 08:50:45;;;;;;;9.40;1.90;;;31.10;21.50;;;;;;5183106;28;20195;-48
2023/06/05 08:53:18;;;;;;;3.27;1.10;;;29.60;22.90;;;;;;5178586;28;20593;-48
2023/06/05 08:55:53;;;;;;;4.63;1.47;;;27.60;24.40;;;;;;5197472;28;20457;-48
2023/06/05 08:58:24;;;;;;;1.67;1.57;;;26.10;26.30;;;;;;5199214;28;20460;-46
2023/06/05 09:00:57;;;;;;;5.60;1.27;;;25.30;26.90;;;;;;5182010;28;20434;-48
2023/06/05 09:03:27;;;;;;;0.80;0.73;;;24.90;27.50;;;;;;5196786;28;20179;-49
2023/06/05 09:05:58;;;;;;;1.83;1.10;;;24.80;27.40;;;;;;5179013;28;20529;-48
2023/06/05 09:08:31;;;;;;;1.30;1.00;;;25.00;27.80;;;;;;5180372;28;20176;-49
2023/06/05 09:11:25;;;;;;;3.83;1.93;;;25.10;27.10;;;;;;5179514;28;20171;-48
2023/06/05 09:14:01;;;;;;;1.50;1.27;;;25.10;27.80;;;;;;5175918;28;20589;-48
2023/06/05 09:16:35;;;;;;;1.83;1.63;;;25.20;27.60;;;;;;5181113;28;20468;-47
2023/06/05 09:19:06;;;;;;;4.63;2.10;;;25.00;27.20;;;;;;5203595;28;20828;-47
2023/06/05 09:21:38;;;;;;;2.97;1.30;;;24.90;27.30;;;;;;5198397;28;20435;-47
2023/06/05 09:24:19;;;;;;;1.07;1.07;;;24.90;27.30;;;;;;5181021;28;20484;-46
2023/06/05 09:27:08;;;;;;;1.53;1.43;;;24.80;27.70;;;;;;5182381;28;20442;-47
2023/06/05 09:29:40;;;;;;;2.13;1.40;;;24.70;27.70;;;;;;5187544;28;20544;-46
2023/06/05 09:32:14;;;;;;;2.53;1.77;;;24.90;27.70;;;;;;5204650;28;20553;-47
2023/06/05 09:34:53;;;;;;;1.43;1.33;;;24.90;27.70;;;;;;5202937;28;20840;-47
2023/06/05 09:37:35;;;;;;;1.93;1.30;;;24.60;27.70;;;;;;5185899;28;20465;-46
2023/06/05 09:40:07;;;;;;;2.73;1.30;;;24.40;28.10;;;;;;5185627;28;20425;-48
2023/06/05 09:42:38;;;;;;;0.90;0.90;;;24.30;27.80;;;;;;5185158;28;20440;-46
2023/06/05 09:45:09;;;;;;;5.33;2.10;;;24.00;27.70;;;;;;5201834;28;20853;-49
2023/06/05 09:47:39;;;;;;;4.93;1.60;;;23.90;28.10;;;;;;5183747;28;20176;-47
2023/06/05 09:50:23;;;;;;;2.00;1.40;;;23.90;28.40;;;;;;5186500;28;21294;-48
2023/06/05 09:52:55;;;;;;;2.77;1.30;;;24.10;28.10;;;;;;5200711;28;20192;-47
2023/06/05 09:55:28;;;;;;;1.40;1.40;;;24.20;28.10;;;;;;5199772;28;20445;-47
2023/06/05 09:58:01;;;;;;;5.00;1.37;;;24.30;27.90;;;;;;5198487;28;20520;-47
2023/06/05 10:00:33;;;;;;;1.90;1.30;;;24.20;27.50;;;;;;5184193;28;20449;-47
2023/06/05 10:03:15;;;;;;;5.27;1.37;;;24.10;27.80;;;;;;5191466;28;20934;-48
2023/06/05 10:05:46;;;;;;;2.00;1.37;;;24.10;27.80;;;;;;5184112;28;20544;-48
2023/06/05 10:08:17;;;;;;;4.70;1.50;;;24.10;28.00;;;;;;5193366;28;20483;-49
2023/06/05 10:10:48;;;;;;;8.17;1.73;;;24.10;28.40;;;;;;5179152;28;20435;-46
2023/06/05 10:13:20;;;;;;;13.23;1.60;;;24.10;28.00;;;;;;5200207;28;20217;-47
2023/06/05 10:15:54;;;;;;;1.33;1.23;;;24.20;28.10;;;;;;5200615;28;20433;-49
2023/06/05 10:18:24;;;;;;;1.60;1.50;;;24.10;27.50;;;;;;5186903;28;20495;-46
2023/06/05 10:20:57;;;;;;;1.30;1.30;;;23.90;27.80;;;;;;5201644;28;20438;-46
2023/06/05 10:23:28;;;;;;;2.93;1.20;;;23.80;28.30;;;;;;5198480;28;20195;-48
2023/06/05 10:26:06;;;;;;;1.10;1.03;;;23.80;28.40;;;;;;5195716;28;20434;-47
2023/06/05 10:28:48;;;;;;;13.47;1.77;;;24.00;28.60;;;;;;5199970;28;20821;-46
2023/06/05 10:31:48;;;;;;;5.00;1.33;;;24.10;28.00;;;;;;5204243;28;20460;-46
2023/06/05 10:34:47;;;;;;;5.23;1.67;;;24.00;28.10;;;;;;5194865;23;20554;-45
2023/06/05 10:37:36;;;;;;;1.50;1.20;;;24.00;28.20;;;;;;5167458;28;20457;-46
2023/06/05 10:40:09;;;;;;;1.90;0.97;;;24.00;28.00;;;;;;5192317;28;20468;-45
2023/06/05 10:42:40;;;;;;;9.63;1.30;;;24.00;28.20;;;;;;5177972;28;20447;-45
2023/06/05 10:45:10;;;;;;;1.30;1.13;;;23.90;28.20;;;;;;5179313;28;20450;-44
2023/06/05 10:47:51;;;;;;;0.90;0.90;;;23.90;28.10;;;;;;5195506;28;20220;-45
2023/06/05 10:50:24;;;;;;;13.40;1.87;;;23.80;28.10;;;;;;5199683;28;20278;-46
2023/06/05 10:52:57;;;;;;;2.23;1.47;;;23.90;28.20;;;;;;5177059;28;20442;-46
2023/06/05 10:55:43;;;;;;;2.27;1.27;;;23.90;28.40;;;;;;5180808;28;20458;-46
2023/06/05 10:58:15;;;;;;;8.63;1.63;;;24.00;28.20;;;;;;5197098;28;21018;-45
2023/06/05 11:01:22;;;;;;;3.10;1.67;;;24.20;28.50;;;;;;5179711;28;20442;-45
2023/06/05 11:03:59;;;;;;;2.13;2.03;;;24.10;27.80;;;;;;5171289;28;20430;-46
2023/06/05 11:06:30;;;;;;;1.73;1.73;;;24.10;27.90;;;;;;5194089;28;20470;-45
2023/06/05 11:09:17;;;;;;;1.40;1.40;;;24.20;27.90;;;;;;5179906;28;20911;-45
2023/06/05 11:11:58;;;;;;;1.27;1.17;;;24.10;26.90;;;;;;5196962;28;20193;-45
2023/06/05 11:14:46;;;;;;;2.50;1.47;;;24.10;27.60;;;;;;5174874;28;20453;-45
2023/06/05 11:17:28;;;;;;;4.03;1.63;;;24.20;27.30;;;;;;5199482;28;20466;-45
2023/06/05 11:20:00;;;;;;;1.50;1.50;;;24.10;27.00;;;;;;5193931;28;20454;-46
2023/06/05 11:22:31;;;;;;;2.77;1.87;;;24.10;27.20;;;;;;5184824;28;20442;-45
2023/06/05 11:25:18;;;;;;;1.30;1.30;;;24.00;27.60;;;;;;5181541;28;20450;-46
2023/06/05 11:27:51;;;;;;;1.37;1.27;;;24.10;27.40;;;;;;5189147;28;20458;-45
2023/06/05 11:30:25;;;;;;;1.50;1.40;;;24.10;27.30;;;;;;5176297;28;20470;-45
2023/06/05 11:32:58;;;;;;;1.67;1.57;;;24.20;26.90;;;;;;5193616;28;20605;-46
2023/06/05 11:35:29;;;;;;;1.73;1.67;;;24.30;27.10;;;;;;5198251;28;20515;-45
2023/06/05 11:38:08;;;;;;;2.87;1.50;;;24.40;27.30;;;;;;5194149;28;20471;-45
2023/06/05 11:40:40;;;;;;;1.20;1.13;;;24.50;27.10;;;;;;5195947;28;20194;-45
2023/06/05 11:43:13;;;;;;;3.63;1.97;;;24.60;27.30;;;;;;5180364;28;20462;-47
2023/06/05 11:45:52;;;;;;;1.43;1.40;;;24.70;27.10;;;;;;5200505;28;20467;-45
2023/06/05 11:48:24;;;;;;;1.40;1.30;;;24.70;27.00;;;;;;5200779;28;20974;-46
2023/06/05 11:51:03;;;;;;;4.30;1.30;;;24.80;27.30;;;;;;5199841;28;20509;-45
2023/06/05 11:53:34;;;;;;;1.70;1.60;;;24.70;26.90;;;;;;5199435;28;20452;-44
2023/06/05 11:56:15;;;;;;;5.37;1.87;;;24.50;27.00;;;;;;5181146;28;20871;-45
2023/06/05 11:58:45;;;;;;;1.00;0.90;;;24.50;27.20;;;;;;5178194;28;20441;-44
2023/06/05 12:01:31;;;;;;;1.53;1.40;;;24.60;27.40;;;;;;5199261;28;20427;-46
2023/06/05 12:04:06;;;;;;;1.93;1.83;;;24.60;26.80;;;;;;5177130;28;20203;-45
2023/06/05 12:06:41;;;;;;;2.33;1.60;;;24.70;26.50;;;;;;5182244;28;20442;-45
2023/06/05 12:09:14;;;;;;;2.00;1.90;;;24.70;26.50;;;;;;5194756;28;20462;-44
2023/06/05 12:11:45;;;;;;;2.10;1.67;;;24.70;27.20;;;;;;5177428;28;20473;-46
2023/06/05 12:14:31;;;;;;;1.67;1.57;;;24.70;26.50;;;;;;5185174;28;20582;-45
2023/06/05 12:17:09;;;;;;;3.40;1.53;;;24.90;27.00;;;;;;5180732;28;20454;-45
2023/06/05 12:19:41;;;;;;;1.20;1.10;;;24.80;26.60;;;;;;5191334;28;20427;-46
2023/06/05 12:22:11;;;;;;;3.23;2.40;;;24.80;26.90;;;;;;5195778;28;20438;-45
2023/06/05 12:24:42;;;;;;;2.97;1.50;;;24.80;27.40;;;;;;5197771;28;20978;-45
2023/06/05 12:27:13;;;;;;;3.83;1.50;;;24.90;27.00;;;;;;5189218;28;20232;-46
2023/06/05 12:29:57;;;;;;;11.60;1.87;;;24.80;26.50;;;;;;5193577;28;20711;-45
2023/06/05 12:32:27;;;;;;;1.60;1.50;;;24.70;27.00;;;;;;5172552;28;20434;-45
2023/06/05 12:34:58;;;;;;;4.33;1.77;;;24.70;27.30;;;;;;5196511;28;20450;-46
2023/06/05 12:37:42;;;;;;;3.90;1.63;;;24.60;27.30;;;;;;5192029;28;20227;-45
2023/06/05 12:40:14;;;;;;;7.83;2.27;;;24.70;27.00;;;;;;5191684;28;20449;-45
2023/06/05 12:42:44;;;;;;;3.63;1.40;;;24.80;27.40;;;;;;5200533;28;20518;-45
2023/06/05 12:45:16;;;;;;;1.70;1.57;;;24.90;26.90;;;;;;5196639;28;20955;-46
2023/06/05 12:47:46;;;;;;;2.53;2.20;;;24.80;26.40;;;;;;5190995;28;20183;-45
2023/06/05 12:50:19;;;;;;;2.77;2.60;;;24.70;26.60;;;;;;5193584;28;20426;-44
2023/06/05 12:52:49;;;;;;;1.40;1.40;;;24.80;26.80;;;;;;5180473;28;20184;-45
2023/06/05 12:55:20;;;;;;;1.80;1.70;;;24.70;26.90;;;;;;5191805;28;25485;-46
2023/06/05 12:57:51;;;;;;;1.93;1.40;;;24.70;27.20;;;;;;5182431;28;20750;-46
2023/06/05 13:00:21;;;;;;;1.93;1.87;;;24.70;27.10;;;;;;5177004;28;20180;-46
2023/06/05 13:02:52;;;;;;;2.00;1.90;;;24.80;27.40;;;;;;5188378;28;20176;-47
2023/06/05 13:05:23;;;;;;;5.60;1.93;;;24.80;27.20;;;;;;5189966;28;20595;-49
2023/06/05 13:07:54;;;;;;;5.77;1.90;;;24.60;27.20;;;;;;5175821;28;20737;-45
2023/06/05 13:10:25;;;;;;;1.73;1.60;;;24.50;27.20;;;;;;5173207;28;20397;-44
2023/06/05 13:12:56;;;;;;;4.80;3.73;;;24.50;27.50;;;;;;5190586;28;20438;-45
2023/06/05 13:15:27;;;;;;;2.30;2.10;;;24.60;27.50;;;;;;5173024;28;20199;-46